Time;durP1;ratioP1;P1;durP2;ratioP2;P2;SDS_P1;SDS_P2;PMS_P1;PMS_P2;Temp;Humidity;BMP_temperature;BMP_pressure;BME280_temperature;BME280_humidity;BME280_pressure;Samples;Min_cycle;Max_cycle;Signal;HPM_P1;HPM_P2
2023/05/23 00:00:05;;;;;;;29.13;18.25;;;;;;;14.38;92.21;101777.13;5010851;28;20029;-73
2023/05/23 00:02:37;;;;;;;30.88;18.48;;;;;;;14.33;93.02;101775.72;5023032;28;20122;-72
2023/05/23 00:05:03;;;;;;;27.67;17.50;;;;;;;14.22;93.17;101776.50;5030169;28;20091;-71
2023/05/23 00:07:28;;;;;;;26.55;17.08;;;;;;;14.26;92.74;101767.94;5029586;28;20049;-71
2023/05/23 00:09:54;;;;;;;32.60;17.73;;;;;;;14.25;92.99;101765.34;5020915;28;20092;-71
2023/05/23 00:12:21;;;;;;;32.35;18.52;;;;;;;14.23;93.39;101772.78;5030310;28;20044;-71
2023/05/23 00:14:46;;;;;;;32.63;18.73;;;;;;;14.20;93.21;101776.63;5030011;28;20393;-71
2023/05/23 00:17:11;;;;;;;30.52;18.10;;;;;;;14.23;93.52;101767.31;5015798;28;20041;-72
2023/05/23 00:19:37;;;;;;;35.13;18.38;;;;;;;14.22;93.72;101774.66;5010502;28;20081;-71
2023/05/23 00:22:03;;;;;;;27.75;18.38;;;;;;;14.19;93.86;101774.00;5010000;28;20041;-71
2023/05/23 00:24:28;;;;;;;25.25;15.88;;;;;;;14.18;93.44;101775.88;5012132;28;20049;-71
2023/05/23 00:26:53;;;;;;;23.55;15.65;;;;;;;14.22;93.11;101776.50;5016659;28;20520;-71
2023/05/23 00:29:19;;;;;;;24.35;15.38;;;;;;;14.23;92.80;101778.28;5009493;28;20025;-72
2023/05/23 00:31:45;;;;;;;28.60;15.90;;;;;;;14.23;92.79;101784.63;5018157;28;20068;-71
2023/05/23 00:34:16;;;;;;;24.48;14.70;;;;;;;14.24;93.95;101788.22;5025156;28;20074;-72
2023/05/23 00:36:43;;;;;;;23.75;15.10;;;;;;;14.21;92.95;101785.69;5025309;28;20489;-72
2023/05/23 00:39:16;;;;;;;22.52;14.25;;;;;;;14.19;93.15;101785.81;5009513;28;20149;-72
2023/05/23 00:41:41;;;;;;;24.05;13.80;;;;;;;14.18;93.76;101792.28;5008537;28;20045;-73
2023/05/23 00:44:08;;;;;;;22.75;14.38;;;;;;;14.16;93.46;101794.25;5010629;28;20021;-71
2023/05/23 00:46:34;;;;;;;22.52;14.45;;;;;;;14.15;93.17;101797.97;5020892;28;20517;-72
2023/05/23 00:49:00;;;;;;;21.90;13.82;;;;;;;14.18;91.74;101792.28;5008407;28;20018;-72
2023/05/23 00:51:26;;;;;;;24.25;14.02;;;;;;;14.14;93.32;101792.63;5017435;28;20045;-70
2023/05/23 00:53:52;;;;;;;19.98;13.43;;;;;;;14.12;93.49;101800.06;5025031;28;20033;-71
2023/05/23 00:56:17;;;;;;;21.02;13.82;;;;;;;14.12;92.77;101800.91;5009561;28;20103;-71
2023/05/23 00:58:43;;;;;;;21.33;12.50;;;;;;;14.13;92.70;101793.59;5020233;28;20038;-71
2023/05/23 01:01:08;;;;;;;18.98;12.48;;;;;;;14.14;91.80;101803.56;5024171;28;20362;-71
2023/05/23 01:03:35;;;;;;;23.98;14.13;;;;;;;14.04;91.92;101796.03;5009413;28;20427;-71
2023/05/23 01:06:01;;;;;;;21.52;13.07;;;;;;;14.01;91.58;101798.97;5009338;28;20232;-71
2023/05/23 01:08:28;;;;;;;23.10;13.77;;;;;;;13.96;91.55;101800.28;5015103;28;20501;-71
2023/05/23 01:10:58;;;;;;;19.98;12.80;;;;;;;13.88;92.10;101800.81;5012308;28;20037;-71
2023/05/23 01:13:50;;;;;;;23.00;12.45;;;;;;;13.90;91.64;101809.81;5011066;28;20038;-72
2023/05/23 01:16:26;;;;;;;21.00;12.50;;;;;;;13.87;91.40;101812.75;5021499;28;20115;-71
2023/05/23 01:19:01;;;;;;;20.70;12.63;;;;;;;13.90;90.84;101811.69;5009126;28;20481;-71
2023/05/23 01:21:27;;;;;;;22.65;12.38;;;;;;;13.89;90.59;101810.78;5007332;28;20038;-71
2023/05/23 01:24:35;;;;;;;29.50;12.73;;;;;;;13.88;90.72;101811.75;5006696;28;20034;-71
2023/05/23 01:27:03;;;;;;;28.80;13.13;;;;;;;13.82;91.19;101814.06;5019676;28;20353;-72
2023/05/23 01:29:37;;;;;;;21.13;12.15;;;;;;;13.81;91.60;101817.81;5022147;28;20112;-71
2023/05/23 01:32:05;;;;;;;25.73;13.02;;;;;;;13.75;91.55;101816.34;5009245;28;20104;-72
2023/05/23 01:34:33;;;;;;;27.70;13.82;;;;;;;13.73;91.39;101816.47;5014590;28;20224;-71
2023/05/23 01:36:59;;;;;;;25.02;13.07;;;;;;;13.68;92.60;101823.25;5028796;28;20124;-71
2023/05/23 01:39:24;;;;;;;24.02;12.18;;;;;;;13.64;92.64;101821.69;5021452;28;20045;-72
2023/05/23 01:41:51;;;;;;;26.13;13.38;;;;;;;13.63;92.83;101825.44;5024096;28;20052;-71
2023/05/23 01:44:17;;;;;;;29.00;13.63;;;;;;;13.62;92.50;101819.09;5008377;28;20065;-71
2023/05/23 01:46:45;;;;;;;29.55;13.98;;;;;;;13.58;92.87;101823.00;5008966;28;20439;-70
2023/05/23 01:49:12;;;;;;;24.95;13.13;;;;;;;13.55;93.72;101831.41;5007196;28;20145;-71
2023/05/23 01:51:38;;;;;;;29.52;14.43;;;;;;;13.56;93.45;101835.03;5008534;28;20078;-71
2023/05/23 01:54:04;;;;;;;24.67;14.40;;;;;;;13.59;93.77;101837.56;5007349;28;20038;-71
2023/05/23 01:56:31;;;;;;;37.50;15.45;;;;;;;13.56;94.12;101846.84;5008739;28;20277;-71
2023/05/23 01:58:56;;;;;;;30.42;15.70;;;;;;;13.54;93.92;101835.13;5012317;28;20564;-70
2023/05/23 02:01:22;;;;;;;31.30;15.32;;;;;;;13.53;94.58;101841.59;5025932;28;20039;-71
2023/05/23 02:03:48;;;;;;;29.08;15.43;;;;;;;13.49;95.08;101830.00;5010512;28;20044;-70
2023/05/23 02:06:13;;;;;;;31.10;17.15;;;;;;;13.48;95.36;101835.56;5006841;28;20060;-71
2023/05/23 02:08:39;;;;;;;28.70;14.90;;;;;;;13.48;95.32;101844.66;5008342;28;20068;-71
2023/05/23 02:11:04;;;;;;;41.10;15.63;;;;;;;13.49;95.20;101838.19;5006659;28;20037;-71
2023/05/23 02:13:30;;;;;;;35.80;15.52;;;;;;;13.46;95.30;101843.00;5007681;28;20256;-72
2023/05/23 02:15:55;;;;;;;33.08;16.23;;;;;;;13.49;95.91;101848.25;5006788;28;20627;-72
2023/05/23 02:18:21;;;;;;;30.48;15.25;;;;;;;13.49;94.62;101846.41;5006497;28;20140;-71
2023/05/23 02:20:49;;;;;;;31.15;16.60;;;;;;;13.51;95.23;101857.22;5006360;28;20547;-71
2023/05/23 02:23:14;;;;;;;33.85;15.05;;;;;;;13.50;95.59;101859.06;5007286;28;20117;-71
2023/05/23 02:25:43;;;;;;;33.65;14.80;;;;;;;13.51;95.01;101855.34;5015625;28;20025;-70
2023/05/23 02:28:10;;;;;;;23.92;14.32;;;;;;;13.56;95.11;101854.16;5008107;28;20045;-71
2023/05/23 02:30:36;;;;;;;31.17;14.68;;;;;;;13.56;94.40;101865.09;4990658;28;20517;-72
2023/05/23 02:33:06;;;;;;;28.33;15.48;;;;;;;13.59;95.07;101853.97;5006457;28;20417;-71
2023/05/23 02:35:32;;;;;;;30.55;14.95;;;;;;;13.61;95.05;101850.13;5021829;28;20132;-71
2023/05/23 02:37:58;;;;;;;28.67;14.57;;;;;;;13.62;95.14;101851.03;5025070;28;20120;-70
2023/05/23 02:40:24;;;;;;;32.00;15.93;;;;;;;13.60;95.01;101851.13;5006550;28;20418;-71
2023/05/23 02:42:51;;;;;;;30.80;15.30;;;;;;;13.59;95.07;101849.38;5007078;28;20045;-70
2023/05/23 02:45:17;;;;;;;24.83;14.38;;;;;;;13.58;94.92;101854.94;5006294;28;20088;-71
2023/05/23 02:47:42;;;;;;;29.25;14.75;;;;;;;13.61;94.28;101861.06;5007240;28;20462;-71
2023/05/23 02:50:08;;;;;;;28.75;14.27;;;;;;;13.60;94.35;101861.19;5006572;28;20064;-71
2023/05/23 02:52:33;;;;;;;27.35;14.02;;;;;;;13.56;94.62;101862.38;5005294;28;20038;-72
2023/05/23 02:54:59;;;;;;;25.20;13.43;;;;;;;13.50;95.38;101859.06;5018005;28;20052;-71
2023/05/23 02:57:25;;;;;;;22.83;11.88;;;;;;;13.47;95.09;101861.13;5005742;28;20028;-71
2023/05/23 02:59:51;;;;;;;19.48;10.15;;;;;;;13.43;94.76;101854.13;5005786;28;20029;-72
2023/05/23 03:02:16;;;;;;;20.50;9.35;;;;;;;13.41;94.29;101859.69;5006420;28;20030;-72
2023/05/23 03:04:42;;;;;;;14.93;8.65;;;;;;;13.40;94.43;101857.09;5005413;28;20060;-72
2023/05/23 03:07:10;;;;;;;13.85;8.15;;;;;;;13.42;93.66;101863.31;5006714;28;20104;-70
2023/05/23 03:09:35;;;;;;;16.52;8.05;;;;;;;13.43;93.72;101860.50;4988643;28;20030;-71
2023/05/23 03:12:01;;;;;;;14.05;7.47;;;;;;;13.40;93.89;101860.69;5006019;28;20026;-71
2023/05/23 03:14:27;;;;;;;15.77;8.70;;;;;;;13.38;94.09;101862.66;5005523;28;20057;-72
2023/05/23 03:16:53;;;;;;;11.85;7.05;;;;;;;13.34;94.37;101866.59;5017465;28;20064;-71
2023/05/23 03:19:18;;;;;;;10.45;6.55;;;;;;;13.34;93.63;101854.78;5006877;28;20478;-70
2023/05/23 03:21:43;;;;;;;17.17;7.50;;;;;;;13.35;92.99;101857.41;5005973;28;20052;-70
2023/05/23 03:24:09;;;;;;;11.93;6.38;;;;;;;13.36;92.77;101858.28;5006978;28;20034;-71
2023/05/23 03:26:35;;;;;;;10.05;5.88;;;;;;;13.32;93.26;101860.31;5005782;28;20034;-70
2023/05/23 03:29:00;;;;;;;8.48;5.47;;;;;;;13.32;93.38;101862.19;5005209;28;20517;-71
2023/05/23 03:31:26;;;;;;;9.27;5.82;;;;;;;13.34;92.82;101868.44;5008169;28;20635;-72
2023/05/23 03:33:52;;;;;;;8.05;5.10;;;;;;;13.38;92.54;101875.44;4989589;28;20060;-71
2023/05/23 03:36:18;;;;;;;13.07;6.30;;;;;;;13.38;93.81;101869.97;5026617;28;20041;-71
2023/05/23 03:38:43;;;;;;;8.38;5.45;;;;;;;13.38;92.89;101870.88;5025804;28;20439;-72
2023/05/23 03:41:08;;;;;;;10.60;6.55;;;;;;;13.41;93.16;101867.91;5017837;28;20045;-72
2023/05/23 03:43:34;;;;;;;10.52;5.40;;;;;;;13.46;92.80;101867.59;5023084;28;20040;-71
2023/05/23 03:45:59;;;;;;;8.75;5.97;;;;;;;13.47;92.57;101867.47;5015283;28;20036;-72
2023/05/23 03:48:25;;;;;;;11.30;5.35;;;;;;;13.46;91.99;101868.47;5005468;28;20022;-71
2023/05/23 03:50:50;;;;;;;10.40;6.05;;;;;;;13.49;91.38;101871.00;5008220;28;20113;-72
2023/05/23 03:53:17;;;;;;;9.65;6.32;;;;;;;13.48;93.25;101874.72;5004766;28;20397;-71
2023/05/23 03:55:42;;;;;;;11.55;6.57;;;;;;;13.44;93.47;101880.50;5006499;28;20280;-73
2023/05/23 03:58:08;;;;;;;12.60;6.18;;;;;;;13.43;92.41;101876.00;5021183;28;20037;-72
2023/05/23 04:00:33;;;;;;;10.93;5.57;;;;;;;13.41;92.29;101884.31;5025299;28;20113;-72
2023/05/23 04:03:00;;;;;;;9.65;6.13;;;;;;;13.45;92.22;101876.78;5015538;28;20239;-72
2023/05/23 04:05:26;;;;;;;13.35;6.47;;;;;;;13.46;92.99;101887.59;5006625;28;20034;-73
2023/05/23 04:07:52;;;;;;;12.88;6.65;;;;;;;13.43;92.85;101885.09;4988194;28;20073;-73
2023/05/23 04:10:18;;;;;;;10.82;6.55;;;;;;;13.43;92.77;101884.19;5004854;28;20060;-70
2023/05/23 04:12:44;;;;;;;11.40;6.55;;;;;;;13.44;92.55;101891.44;5017702;28;20212;-71
2023/05/23 04:15:13;;;;;;;14.35;6.72;;;;;;;13.45;92.43;101891.31;5025863;28;20396;-71
2023/05/23 04:17:50;;;;;;;11.45;6.30;;;;;;;13.43;93.41;101889.66;5027251;28;20068;-72
2023/05/23 04:20:16;;;;;;;13.43;7.22;;;;;;;13.39;92.87;101891.75;5027140;28;20401;-72
2023/05/23 04:22:42;;;;;;;11.15;6.35;;;;;;;13.41;93.20;101891.63;5007860;28;20040;-72
2023/05/23 04:25:08;;;;;;;15.60;6.57;;;;;;;13.43;92.92;101890.56;5009099;28;20029;-71
2023/05/23 04:27:41;;;;;;;18.52;8.73;;;;;;;13.45;93.30;101893.19;5009193;28;20033;-71
2023/05/23 04:30:12;;;;;;;15.15;7.88;;;;;;;13.44;93.26;101896.91;5010727;28;20041;-72
2023/05/23 04:32:41;;;;;;;17.05;8.35;;;;;;;13.44;93.16;101888.69;5011484;28;20049;-73
2023/05/23 04:35:07;;;;;;;19.02;9.35;;;;;;;13.46;93.20;101903.13;5016236;28;20053;-72
2023/05/23 04:37:38;;;;;;;16.73;9.50;;;;;;;13.46;93.35;101903.13;5008328;28;20363;-71
2023/05/23 04:40:05;;;;;;;24.23;9.75;;;;;;;13.49;93.59;101909.28;5026523;28;20048;-72
2023/05/23 04:42:43;;;;;;;17.15;9.07;;;;;;;13.48;92.29;101910.25;5028338;28;20442;-71
2023/05/23 04:45:28;;;;;;;23.02;9.50;;;;;;;13.51;93.18;101915.50;5028269;28;20030;-71
2023/05/23 04:48:00;;;;;;;28.75;9.90;;;;;;;13.46;93.39;101919.53;5026813;28;20064;-71
2023/05/23 04:50:46;;;;;;;23.90;11.25;;;;;;;13.43;93.31;101917.91;5028238;28;20037;-72
2023/05/23 04:53:12;;;;;;;21.70;10.38;;;;;;;13.43;93.39;101914.25;5027190;28;20163;-72
2023/05/23 04:55:38;;;;;;;24.35;10.48;;;;;;;13.46;94.02;101925.00;5027045;28;20485;-72
2023/05/23 04:58:06;;;;;;;25.27;10.57;;;;;;;13.47;93.38;101924.88;5020894;28;20116;-73
2023/05/23 05:00:32;;;;;;;26.23;11.23;;;;;;;13.43;93.19;101934.31;5008568;28;20204;-71
2023/05/23 05:02:57;;;;;;;24.27;11.13;;;;;;;13.42;93.17;101937.13;5013583;28;20425;-71
2023/05/23 05:05:26;;;;;;;28.30;12.00;;;;;;;13.37;93.41;101937.41;5026171;28;20025;-71
2023/05/23 05:07:52;;;;;;;27.00;11.52;;;;;;;13.37;93.40;101934.69;5027029;28;20044;-71
2023/05/23 05:10:19;;;;;;;26.33;10.75;;;;;;;13.39;93.81;101938.22;5028761;28;20029;-71
2023/05/23 05:12:45;;;;;;;23.85;11.07;;;;;;;13.40;92.22;101944.56;5027029;28;20349;-71
2023/05/23 05:15:12;;;;;;;37.17;11.57;;;;;;;13.39;93.08;101940.94;5023487;28;20042;-72
2023/05/23 05:17:38;;;;;;;26.17;12.15;;;;;;;13.36;92.35;101946.59;5020593;28;20406;-72
2023/05/23 05:20:07;;;;;;;26.45;11.57;;;;;;;13.32;92.16;101953.25;5007930;28;20402;-73
2023/05/23 05:22:35;;;;;;;34.42;11.43;;;;;;;13.24;92.08;101948.31;5007110;28;20030;-71
2023/05/23 05:25:02;;;;;;;29.23;10.90;;;;;;;13.23;91.67;101957.47;5023697;28;20037;-72
2023/05/23 05:27:28;;;;;;;26.92;11.80;;;;;;;13.26;93.08;101959.13;5021924;28;20057;-72
2023/05/23 05:30:02;;;;;;;26.70;11.35;;;;;;;13.27;92.20;101963.63;5027131;28;20022;-71
2023/05/23 05:32:30;;;;;;;32.53;11.57;;;;;;;13.28;91.44;101962.63;5012224;28;20033;-71
2023/05/23 05:34:55;;;;;;;20.33;9.48;;;;;;;13.25;91.32;101961.00;5007177;28;20045;-71
2023/05/23 05:37:21;;;;;;;30.77;9.35;;;;;;;13.26;90.78;101970.06;5008834;28;20037;-72
2023/05/23 05:39:46;;;;;;;34.65;10.35;;;;;;;13.24;92.21;101967.44;5016642;28;20040;-72
2023/05/23 05:42:12;;;;;;;24.60;9.10;;;;;;;13.23;91.31;101967.53;5009508;28;20501;-71
2023/05/23 05:44:37;;;;;;;26.77;9.50;;;;;;;13.14;92.31;101976.28;5007465;28;20030;-72
2023/05/23 05:47:03;;;;;;;28.98;9.32;;;;;;;13.00;92.12;101972.59;5009102;28;20136;-72
2023/05/23 05:49:29;;;;;;;33.08;9.32;;;;;;;13.00;92.20;101982.66;5007052;28;20116;-72
2023/05/23 05:51:55;;;;;;;21.20;8.77;;;;;;;12.99;91.34;101976.31;5021808;28;20022;-72
2023/05/23 05:54:20;;;;;;;25.48;8.40;;;;;;;12.97;91.04;101989.19;5024183;28;20044;-72
2023/05/23 05:56:46;;;;;;;21.30;8.82;;;;;;;12.88;91.81;101989.78;5018009;28;20061;-69
2023/05/23 05:59:12;;;;;;;23.23;8.45;;;;;;;12.82;91.45;101998.34;5005733;28;20072;-70
2023/05/23 06:01:38;;;;;;;25.92;8.07;;;;;;;12.83;91.71;101993.78;5011537;28;20129;-70
2023/05/23 06:04:04;;;;;;;18.13;8.98;;;;;;;12.78;91.79;101999.56;5022022;28;20540;-71
2023/05/23 06:06:31;;;;;;;17.83;7.53;;;;;;;12.74;91.52;101995.25;5015918;28;20146;-70
2023/05/23 06:08:56;;;;;;;23.83;8.23;;;;;;;12.67;92.32;102000.19;5005549;28;20025;-71
2023/05/23 06:11:21;;;;;;;16.52;6.57;;;;;;;12.69;90.92;102006.47;5020231;28;20041;-71
2023/05/23 06:13:47;;;;;;;12.05;5.97;;;;;;;12.67;91.76;102004.78;5007394;28;20028;-72
2023/05/23 06:16:13;;;;;;;19.38;6.95;;;;;;;12.66;91.97;102013.97;5006558;28;20044;-71
2023/05/23 06:18:39;;;;;;;16.52;6.22;;;;;;;12.65;90.98;102015.81;5019541;28;20040;-72
2023/05/23 06:21:05;;;;;;;17.90;5.93;;;;;;;12.64;91.35;102025.00;5008591;28;20481;-72
2023/05/23 06:23:32;;;;;;;19.58;6.13;;;;;;;12.60;91.17;102023.41;5019557;28;20051;-71
2023/05/23 06:25:58;;;;;;;19.90;6.47;;;;;;;12.61;90.71;102019.72;5023551;28;20022;-71
2023/05/23 06:28:24;;;;;;;13.85;6.30;;;;;;;12.58;91.26;102029.94;5022911;28;20505;-71
2023/05/23 06:30:50;;;;;;;14.85;5.72;;;;;;;12.51;90.84;102026.72;5005910;28;20038;-71
2023/05/23 06:33:15;;;;;;;10.30;5.43;;;;;;;12.53;90.79;102035.69;5007519;28;20136;-71
2023/05/23 06:35:41;;;;;;;10.85;6.20;;;;;;;12.55;91.30;102025.56;5011107;28;20051;-72
2023/05/23 06:38:07;;;;;;;12.00;5.80;;;;;;;12.57;90.09;102028.19;5018445;28;20103;-71
2023/05/23 06:40:32;;;;;;;12.75;5.72;;;;;;;12.56;90.29;102034.63;5019375;28;20033;-71
2023/05/23 06:42:57;;;;;;;18.60;6.13;;;;;;;12.52;90.21;102058.50;5005498;28;20022;-71
2023/05/23 06:45:33;;;;;;;19.75;5.82;;;;;;;12.45;89.44;102062.56;5007658;28;20042;-71
2023/05/23 06:48:00;;;;;;;18.77;6.55;;;;;;;12.44;89.65;102050.75;5013753;28;20036;-71
2023/05/23 06:50:25;;;;;;;21.05;6.30;;;;;;;12.46;88.85;102058.88;4998308;28;20175;-70
2023/05/23 06:52:51;;;;;;;16.38;5.90;;;;;;;12.44;89.95;102061.69;5024719;28;20044;-72
2023/05/23 06:55:18;;;;;;;13.60;5.85;;;;;;;12.47;89.41;102071.53;5020881;28;20034;-71
2023/05/23 06:57:45;;;;;;;14.68;5.93;;;;;;;12.48;88.60;102070.56;5006158;28;20665;-71
2023/05/23 07:00:12;;;;;;;16.52;5.45;;;;;;;12.44;87.72;102069.00;5006228;28;20030;-71
2023/05/23 07:02:47;;;;;;;11.10;5.10;;;;;;;12.46;87.47;102065.22;5015660;28;20026;-71
2023/05/23 07:05:15;;;;;;;18.30;5.88;;;;;;;12.48;87.18;102085.09;5021631;28;20034;-71
2023/05/23 07:07:49;;;;;;;13.68;5.32;;;;;;;12.47;85.83;102086.06;5017203;28;20037;-71
2023/05/23 07:10:14;;;;;;;13.80;5.70;;;;;;;12.46;85.55;102084.31;5021860;28;20144;-71
2023/05/23 07:12:40;;;;;;;12.73;5.15;;;;;;;12.61;86.29;102078.91;5021146;28;20044;-70
2023/05/23 07:15:09;;;;;;;15.63;5.15;;;;;;;12.70;82.10;102083.78;5007669;28;20030;-72
2023/05/23 07:17:40;;;;;;;12.50;5.03;;;;;;;12.77;81.11;102090.63;5009031;28;20514;-71
2023/05/23 07:20:07;;;;;;;12.30;4.45;;;;;;;12.91;81.84;102101.56;4989469;28;20096;-71
2023/05/23 07:22:34;;;;;;;12.25;4.65;;;;;;;12.96;79.97;102085.78;5004828;28;20125;-71
2023/05/23 07:24:59;;;;;;;9.98;4.60;;;;;;;12.98;78.65;102082.97;5020363;28;20120;-71
2023/05/23 07:27:29;;;;;;;16.83;4.82;;;;;;;13.10;78.31;102084.91;5015326;28;20088;-71
2023/05/23 07:29:56;;;;;;;13.25;4.68;;;;;;;13.30;77.54;102089.16;5020777;28;20390;-72
2023/05/23 07:32:21;;;;;;;10.38;5.20;;;;;;;13.43;77.48;102092.84;5001081;28;20430;-71
2023/05/23 07:34:47;;;;;;;16.02;5.75;;;;;;;13.50;76.80;102105.13;5024620;28;20081;-72
2023/05/23 07:37:13;;;;;;;12.10;4.90;;;;;;;13.56;77.82;102102.97;5025072;28;20444;-71
2023/05/23 07:39:42;;;;;;;12.88;4.97;;;;;;;13.71;76.03;102093.78;5016880;28;20863;-71
2023/05/23 07:42:07;;;;;;;12.25;5.28;;;;;;;13.79;73.59;102100.50;5017436;28;20045;-71
2023/05/23 07:44:32;;;;;;;13.05;5.13;;;;;;;13.79;75.57;102094.16;5002626;28;20034;-71
2023/05/23 07:46:58;;;;;;;12.45;4.68;;;;;;;13.79;73.68;102096.88;5006486;28;20026;-71
2023/05/23 07:49:24;;;;;;;12.50;5.35;;;;;;;13.73;74.63;102097.28;5007727;28;20503;-71
2023/05/23 07:51:49;;;;;;;12.13;5.00;;;;;;;13.69;74.20;102104.81;5001809;28;20144;-71
2023/05/23 07:54:15;;;;;;;13.48;5.60;;;;;;;13.67;74.20;102105.91;5014128;28;20040;-71
2023/05/23 07:56:42;;;;;;;14.77;5.35;;;;;;;13.74;73.41;102102.66;5009562;28;20724;-71
2023/05/23 07:59:07;;;;;;;15.70;5.63;;;;;;;13.87;75.56;102099.13;5009195;28;20038;-71
2023/05/23 08:01:33;;;;;;;15.55;4.78;;;;;;;13.91;74.09;102108.88;5017013;28;20061;-71
2023/05/23 08:04:03;;;;;;;12.10;4.70;;;;;;;13.94;73.57;102106.84;5028936;28;20040;-71
2023/05/23 08:06:33;;;;;;;11.90;4.40;;;;;;;14.04;72.68;102110.69;5027281;28;20482;-71
2023/05/23 08:09:04;;;;;;;11.75;5.25;;;;;;;13.96;74.00;102114.94;5008059;28;20085;-71
2023/05/23 08:11:31;;;;;;;10.07;4.97;;;;;;;14.03;73.11;102114.44;5008748;28;20045;-71
2023/05/23 08:13:58;;;;;;;17.30;5.47;;;;;;;14.02;73.25;102126.31;5008476;28;20387;-71
2023/05/23 08:16:42;;;;;;;13.02;6.07;;;;;;;13.92;73.06;102121.56;5008895;28;20068;-71
2023/05/23 08:19:16;;;;;;;11.98;5.35;;;;;;;13.87;73.13;102130.09;5008281;28;20034;-71
2023/05/23 08:21:42;;;;;;;12.55;5.03;;;;;;;13.85;74.02;102121.13;5021452;28;20041;-71
2023/05/23 08:24:08;;;;;;;17.13;5.53;;;;;;;13.85;73.41;102109.25;5014073;28;20030;-71
2023/05/23 08:26:35;;;;;;;11.57;5.20;;;;;;;13.87;73.14;102118.28;5007959;28;20026;-71
2023/05/23 08:29:03;;;;;;;13.57;4.70;;;;;;;13.92;74.01;102118.84;5019923;28;20037;-71
2023/05/23 08:31:30;;;;;;;12.65;4.78;;;;;;;13.85;73.70;102122.94;5009930;28;20034;-71
2023/05/23 08:33:56;;;;;;;14.75;4.93;;;;;;;13.80;74.00;102131.44;5010017;28;20108;-71
2023/05/23 08:36:22;;;;;;;13.60;4.53;;;;;;;13.73;74.82;102122.78;5023699;28;20034;-71
2023/05/23 08:38:49;;;;;;;12.60;4.85;;;;;;;13.69;75.70;102134.91;5007301;28;20038;-71
2023/05/23 08:41:23;;;;;;;10.95;3.97;;;;;;;13.70;75.39;102130.31;5023387;28;20045;-71
2023/05/23 08:43:52;;;;;;;10.70;4.57;;;;;;;13.69;76.63;102129.44;5007553;28;20435;-72
2023/05/23 08:46:25;;;;;;;12.55;4.60;;;;;;;13.71;75.28;102137.56;5006763;28;20034;-71
2023/05/23 08:48:53;;;;;;;11.93;3.88;;;;;;;13.87;77.17;102130.09;5007574;28;20083;-71
2023/05/23 08:51:25;;;;;;;10.70;4.38;;;;;;;14.12;77.61;102139.41;5009373;28;20061;-71
2023/05/23 08:53:52;;;;;;;12.43;4.30;;;;;;;14.14;74.89;102143.81;5007110;28;20033;-72
2023/05/23 08:56:19;;;;;;;10.05;4.78;;;;;;;13.98;75.64;102143.06;5023937;28;20049;-71
2023/05/23 08:58:47;;;;;;;14.88;4.50;;;;;;;14.06;75.10;102139.81;5024037;28;20042;-71
2023/05/23 09:01:17;;;;;;;13.27;4.18;;;;;;;14.30;75.74;102143.66;5010174;28;20100;-70
2023/05/23 09:03:43;;;;;;;9.13;3.38;;;;;;;14.51;75.02;102141.34;5015568;28;20116;-71
2023/05/23 09:06:37;;;;;;;11.95;3.55;;;;;;;14.69;74.30;102139.22;5014149;28;20672;-71
2023/05/23 09:09:04;;;;;;;8.80;2.85;;;;;;;14.72;73.83;102149.94;5007165;28;20057;-71
2023/05/23 09:11:33;;;;;;;8.52;3.25;;;;;;;14.76;76.04;102151.50;5007127;28;20057;-71
2023/05/23 09:13:59;;;;;;;9.90;2.97;;;;;;;14.66;73.92;102158.59;5007076;28;20080;-71
2023/05/23 09:16:32;;;;;;;10.35;3.38;;;;;;;14.32;73.62;102169.06;5002007;28;20021;-71
2023/05/23 09:19:09;;;;;;;6.78;3.03;;;;;;;14.11;74.89;102165.03;5026832;28;20041;-71
2023/05/23 09:21:35;;;;;;;11.43;3.40;;;;;;;14.06;73.34;102161.72;5012666;28;20448;-71
2023/05/23 09:24:11;;;;;;;13.68;3.03;;;;;;;14.20;73.88;102159.81;5007344;28;20116;-71
2023/05/23 09:26:37;;;;;;;11.70;2.90;;;;;;;14.49;73.73;102157.88;4992149;28;20478;-72
2023/05/23 09:29:06;;;;;;;10.25;3.17;;;;;;;14.72;71.88;102166.38;5006857;28;20084;-71
2023/05/23 09:31:31;;;;;;;11.70;2.92;;;;;;;14.78;71.08;102163.22;5008627;28;20374;-71
2023/05/23 09:33:58;;;;;;;13.15;3.10;;;;;;;14.76;68.71;102168.81;5008210;28;20128;-71
2023/05/23 09:36:33;;;;;;;12.15;3.22;;;;;;;14.82;69.25;102172.97;5007295;28;20029;-70
2023/05/23 09:39:06;;;;;;;15.15;2.92;;;;;;;14.95;69.57;102164.78;5005928;28;20030;-71
2023/05/23 09:41:34;;;;;;;12.30;2.92;;;;;;;15.08;68.86;102171.16;5008392;28;20447;-72
2023/05/23 09:44:06;;;;;;;11.93;2.50;;;;;;;15.20;67.09;102164.84;5022425;28;20041;-72
2023/05/23 09:46:34;;;;;;;16.20;2.83;;;;;;;15.22;66.88;102173.81;5022304;28;20116;-71
2023/05/23 09:48:59;;;;;;;12.43;2.58;;;;;;;15.19;64.40;102171.28;5007155;28;20040;-71
2023/05/23 09:51:25;;;;;;;14.23;2.70;;;;;;;15.07;66.28;102169.44;5008699;28;20034;-72
2023/05/23 09:53:51;;;;;;;10.52;2.75;;;;;;;15.04;64.35;102170.50;5006388;28;20038;-72
2023/05/23 09:56:18;;;;;;;14.07;2.65;;;;;;;15.12;65.68;102174.59;5007886;28;20033;-71
2023/05/23 09:58:48;;;;;;;14.88;2.78;;;;;;;15.25;64.73;102170.00;5013463;28;20109;-71
2023/05/23 10:01:15;;;;;;;10.60;2.90;;;;;;;15.28;63.83;102170.63;5009549;28;20038;-71
2023/05/23 10:03:48;;;;;;;10.38;2.47;;;;;;;15.29;64.05;102166.94;5015779;28;20044;-72
2023/05/23 10:06:25;;;;;;;13.02;2.55;;;;;;;15.53;65.03;102157.91;5006653;28;20139;-72
2023/05/23 10:09:00;;;;;;;11.40;3.55;;;;;;;16.01;60.58;102158.06;5007210;28;20041;-71
2023/05/23 10:11:34;;;;;;;7.25;2.30;;;;;;;16.33;62.76;102156.53;5008338;28;20532;-72
2023/05/23 10:14:02;;;;;;;13.25;2.83;;;;;;;16.53;60.07;102157.75;5006799;28;20050;-71
2023/05/23 10:16:38;;;;;;;12.07;2.90;;;;;;;16.43;59.23;102166.81;5008240;28;20069;-71
2023/05/23 10:19:33;;;;;;;12.43;3.15;;;;;;;16.21;62.25;102168.44;5008023;28;20498;-71
2023/05/23 10:22:02;;;;;;;8.10;2.72;;;;;;;16.51;58.28;102170.75;5008255;28;20116;-71
2023/05/23 10:24:28;;;;;;;10.25;2.60;;;;;;;16.95;57.63;102168.31;5005611;28;20463;-71
2023/05/23 10:26:54;;;;;;;12.60;2.97;;;;;;;17.11;54.79;102176.22;5007916;28;20042;-72
2023/05/23 10:29:21;;;;;;;12.57;2.72;;;;;;;16.88;54.40;102173.44;5007442;28;20046;-71
2023/05/23 10:31:48;;;;;;;11.88;2.63;;;;;;;17.17;54.27;102173.00;5007679;28;20048;-72
2023/05/23 10:34:22;;;;;;;12.02;2.65;;;;;;;17.29;57.25;102161.03;5007352;28;20077;-71
2023/05/23 10:36:59;;;;;;;13.23;2.63;;;;;;;17.26;56.09;102184.16;5006732;28;20124;-71
2023/05/23 10:39:43;;;;;;;11.02;2.78;;;;;;;17.68;55.21;102170.69;5010581;28;20041;-71
2023/05/23 10:42:16;;;;;;;15.63;3.08;;;;;;;17.74;51.88;102158.34;5027475;28;20116;-71
2023/05/23 10:44:41;;;;;;;;;;;;;;;17.76;54.38;102156.31;5011511;28;20389;-72
2023/05/23 10:47:06;;;;;;;12.52;3.10;;;;;;;17.88;52.23;102160.84;5008264;28;19990;-71
2023/05/23 10:49:45;;;;;;;14.02;3.50;;;;;;;17.99;51.68;102155.31;5006434;28;20034;-72
2023/05/23 10:52:12;;;;;;;9.40;2.88;;;;;;;18.24;53.65;102153.28;5007753;28;20089;-72
2023/05/23 10:54:53;;;;;;;12.80;2.97;;;;;;;18.65;53.83;102157.13;5006666;28;20436;-71
2023/05/23 10:57:21;;;;;;;11.38;2.83;;;;;;;18.87;50.30;102159.81;5007762;28;20092;-71
2023/05/23 10:59:49;;;;;;;16.55;3.20;;;;;;;18.79;52.78;102168.78;5007164;28;20470;-71
2023/05/23 11:02:23;;;;;;;13.88;3.42;;;;;;;18.51;52.43;102166.56;5007658;28;20125;-71
2023/05/23 11:05:21;;;;;;;13.80;3.50;;;;;;;18.63;54.20;102157.28;5007315;28;20077;-71
2023/05/23 11:08:09;;;;;;;11.95;2.95;;;;;;;18.73;53.14;102160.13;5006869;28;20132;-71
2023/05/23 11:10:54;;;;;;;11.68;3.28;;;;;;;18.43;47.98;102161.72;5007389;28;20048;-71
2023/05/23 11:13:20;;;;;;;11.70;2.63;;;;;;;18.44;49.04;102166.22;5006646;28;20124;-71
2023/05/23 11:15:46;;;;;;;9.68;2.72;;;;;;;18.58;48.66;102157.66;5011215;28;20227;-72
2023/05/23 11:18:26;;;;;;;13.10;3.17;;;;;;;18.80;47.73;102151.22;5006817;28;20041;-71